<?xml version="1.0" encoding="UTF-8" standalone="no" ?>
<gpx xmlns="http://www.topografix.com/GPX/1/1" xmlns:xsi="http://www.w3.org/2001/XMLSchema-instance" xsi:schemaLocation="http://www.topografix.com/GPX/1/1 http://www.topografix.com/GPX/1/1/gpx.xsd" version="1.1" creator="VisuGPX - https://www.visugpx.com">
  <metadata>
    <name>La Bardenas Reales</name>
  </metadata>
  <trk>
    <name><![CDATA[6 - Plana de la Negra]]></name>
    <extensions>
      <line xmlns="http://www.topografix.com/GPX/gpx_style/0/2">
        <color>0080ff</color>
        <opacity>0.5</opacity>
        <width>12</width>
      </line>
    </extensions>
    <trkseg>
      <trkpt lat="42.11159" lon="-1.39347">
        <ele>417</ele>
        <time>2010-11-05T21:00:01Z</time>
      </trkpt>
      <trkpt lat="42.11155" lon="-1.39359">
        <ele>417</ele>
        <time>2010-11-05T21:00:04Z</time>
      </trkpt>
      <trkpt lat="42.11133" lon="-1.39344">
        <ele>415</ele>
        <time>2010-11-05T21:00:10Z</time>
      </trkpt>
      <trkpt lat="42.11111" lon="-1.39331">
        <ele>413</ele>
        <time>2010-11-05T21:00:17Z</time>
      </trkpt>
      <trkpt lat="42.11109" lon="-1.3933">
        <ele>413</ele>
        <time>2010-11-05T21:00:18Z</time>
      </trkpt>
      <trkpt lat="42.11045" lon="-1.39286">
        <ele>413</ele>
        <time>2010-11-05T21:00:41Z</time>
      </trkpt>
      <trkpt lat="42.11009" lon="-1.39249">
        <ele>411</ele>
        <time>2010-11-05T21:00:55Z</time>
      </trkpt>
      <trkpt lat="42.10983" lon="-1.39206">
        <ele>409</ele>
        <time>2010-11-05T21:01:08Z</time>
      </trkpt>
      <trkpt lat="42.10892" lon="-1.39078">
        <ele>410</ele>
        <time>2010-11-05T21:01:48Z</time>
      </trkpt>
      <trkpt lat="42.10756" lon="-1.38861">
        <ele>413</ele>
        <time>2010-11-05T21:02:53Z</time>
      </trkpt>
      <trkpt lat="42.10701" lon="-1.38783">
        <ele>415</ele>
        <time>2010-11-05T21:03:18Z</time>
      </trkpt>
      <trkpt lat="42.10608" lon="-1.38649">
        <ele>414</ele>
        <time>2010-11-05T21:04:00Z</time>
      </trkpt>
      <trkpt lat="42.10577" lon="-1.3852">
        <ele>415</ele>
        <time>2010-11-05T21:04:31Z</time>
      </trkpt>
      <trkpt lat="42.10558" lon="-1.38467">
        <ele>417</ele>
        <time>2010-11-05T21:04:44Z</time>
      </trkpt>
      <trkpt lat="42.10559" lon="-1.38394">
        <ele>422</ele>
        <time>2010-11-05T21:05:00Z</time>
      </trkpt>
      <trkpt lat="42.10564" lon="-1.38347">
        <ele>425</ele>
        <time>2010-11-05T21:05:11Z</time>
      </trkpt>
      <trkpt lat="42.10554" lon="-1.3826">
        <ele>431</ele>
        <time>2010-11-05T21:05:32Z</time>
      </trkpt>
      <trkpt lat="42.10553" lon="-1.38226">
        <ele>434</ele>
        <time>2010-11-05T21:05:40Z</time>
      </trkpt>
      <trkpt lat="42.10554" lon="-1.38208">
        <ele>438</ele>
        <time>2010-11-05T21:05:45Z</time>
      </trkpt>
      <trkpt lat="42.10567" lon="-1.38203">
        <ele>438</ele>
        <time>2010-11-05T21:05:48Z</time>
      </trkpt>
      <trkpt lat="42.10589" lon="-1.38209">
        <ele>434</ele>
        <time>2010-11-05T21:05:56Z</time>
      </trkpt>
      <trkpt lat="42.10604" lon="-1.38206">
        <ele>438</ele>
        <time>2010-11-05T21:05:59Z</time>
      </trkpt>
      <trkpt lat="42.1063" lon="-1.38188">
        <ele>439</ele>
        <time>2010-11-05T21:06:09Z</time>
      </trkpt>
      <trkpt lat="42.10642" lon="-1.38167">
        <ele>443</ele>
        <time>2010-11-05T21:06:16Z</time>
      </trkpt>
      <trkpt lat="42.10667" lon="-1.3815">
        <ele>446</ele>
        <time>2010-11-05T21:06:23Z</time>
      </trkpt>
      <trkpt lat="42.10693" lon="-1.38124">
        <ele>449</ele>
        <time>2010-11-05T21:06:34Z</time>
      </trkpt>
      <trkpt lat="42.10712" lon="-1.38103">
        <ele>448</ele>
        <time>2010-11-05T21:06:42Z</time>
      </trkpt>
      <trkpt lat="42.10736" lon="-1.38083">
        <ele>450</ele>
        <time>2010-11-05T21:06:51Z</time>
      </trkpt>
      <trkpt lat="42.10761" lon="-1.38076">
        <ele>450</ele>
        <time>2010-11-05T21:06:58Z</time>
      </trkpt>
      <trkpt lat="42.10785" lon="-1.38057">
        <ele>454</ele>
        <time>2010-11-05T21:07:07Z</time>
      </trkpt>
      <trkpt lat="42.10811" lon="-1.3803">
        <ele>457</ele>
        <time>2010-11-05T21:07:17Z</time>
      </trkpt>
      <trkpt lat="42.10828" lon="-1.38018">
        <ele>458</ele>
        <time>2010-11-05T21:07:23Z</time>
      </trkpt>
      <trkpt lat="42.10829" lon="-1.38017">
        <ele>458</ele>
        <time>2010-11-05T21:07:23Z</time>
      </trkpt>
      <trkpt lat="42.10863" lon="-1.38004">
        <ele>460</ele>
        <time>2010-11-05T21:07:33Z</time>
      </trkpt>
      <trkpt lat="42.10885" lon="-1.37999">
        <ele>459</ele>
        <time>2010-11-05T21:07:41Z</time>
      </trkpt>
      <trkpt lat="42.10887" lon="-1.37998">
        <ele>459</ele>
        <time>2010-11-05T21:07:42Z</time>
      </trkpt>
      <trkpt lat="42.10898" lon="-1.37986">
        <ele>459</ele>
        <time>2010-11-05T21:07:46Z</time>
      </trkpt>
      <trkpt lat="42.10907" lon="-1.37947">
        <ele>463</ele>
        <time>2010-11-05T21:07:55Z</time>
      </trkpt>
      <trkpt lat="42.10929" lon="-1.37921">
        <ele>466</ele>
        <time>2010-11-05T21:08:05Z</time>
      </trkpt>
      <trkpt lat="42.1095" lon="-1.37902">
        <ele>469</ele>
        <time>2010-11-05T21:08:11Z</time>
      </trkpt>
      <trkpt lat="42.10968" lon="-1.37893">
        <ele>469</ele>
        <time>2010-11-05T21:08:18Z</time>
      </trkpt>
      <trkpt lat="42.10999" lon="-1.37901">
        <ele>469</ele>
        <time>2010-11-05T21:08:27Z</time>
      </trkpt>
      <trkpt lat="42.11013" lon="-1.37896">
        <ele>469</ele>
        <time>2010-11-05T21:08:33Z</time>
      </trkpt>
      <trkpt lat="42.11033" lon="-1.37863">
        <ele>471</ele>
        <time>2010-11-05T21:08:41Z</time>
      </trkpt>
      <trkpt lat="42.11049" lon="-1.37834">
        <ele>472</ele>
        <time>2010-11-05T21:08:51Z</time>
      </trkpt>
      <trkpt lat="42.11068" lon="-1.37798">
        <ele>476</ele>
        <time>2010-11-05T21:09:01Z</time>
      </trkpt>
      <trkpt lat="42.11069" lon="-1.37798">
        <ele>476</ele>
        <time>2010-11-05T21:09:01Z</time>
      </trkpt>
      <trkpt lat="42.11087" lon="-1.3774">
        <ele>481</ele>
        <time>2010-11-05T21:09:15Z</time>
      </trkpt>
      <trkpt lat="42.11109" lon="-1.37701">
        <ele>486</ele>
        <time>2010-11-05T21:09:27Z</time>
      </trkpt>
      <trkpt lat="42.11125" lon="-1.3767">
        <ele>492</ele>
        <time>2010-11-05T21:09:34Z</time>
      </trkpt>
      <trkpt lat="42.11135" lon="-1.37638">
        <ele>490</ele>
        <time>2010-11-05T21:09:43Z</time>
      </trkpt>
      <trkpt lat="42.11137" lon="-1.37597">
        <ele>502</ele>
        <time>2010-11-05T21:09:53Z</time>
      </trkpt>
      <trkpt lat="42.11149" lon="-1.3758">
        <ele>502</ele>
        <time>2010-11-05T21:09:59Z</time>
      </trkpt>
      <trkpt lat="42.11166" lon="-1.37561">
        <ele>495</ele>
        <time>2010-11-05T21:10:06Z</time>
      </trkpt>
      <trkpt lat="42.11189" lon="-1.37547">
        <ele>485</ele>
        <time>2010-11-05T21:10:14Z</time>
      </trkpt>
      <trkpt lat="42.11193" lon="-1.37533">
        <ele>487</ele>
        <time>2010-11-05T21:10:18Z</time>
      </trkpt>
      <trkpt lat="42.11188" lon="-1.37498">
        <ele>487</ele>
        <time>2010-11-05T21:10:25Z</time>
      </trkpt>
      <trkpt lat="42.11185" lon="-1.37473">
        <ele>486</ele>
        <time>2010-11-05T21:10:31Z</time>
      </trkpt>
      <trkpt lat="42.11174" lon="-1.37433">
        <ele>498</ele>
        <time>2010-11-05T21:10:41Z</time>
      </trkpt>
      <trkpt lat="42.11158" lon="-1.37405">
        <ele>495</ele>
        <time>2010-11-05T21:10:50Z</time>
      </trkpt>
      <trkpt lat="42.1113" lon="-1.37376">
        <ele>504</ele>
        <time>2010-11-05T21:11:00Z</time>
      </trkpt>
      <trkpt lat="42.11106" lon="-1.37343">
        <ele>504</ele>
        <time>2010-11-05T21:11:11Z</time>
      </trkpt>
      <trkpt lat="42.11083" lon="-1.37327">
        <ele>513</ele>
        <time>2010-11-05T21:11:19Z</time>
      </trkpt>
      <trkpt lat="42.11056" lon="-1.37317">
        <ele>515</ele>
        <time>2010-11-05T21:11:29Z</time>
      </trkpt>
      <trkpt lat="42.11034" lon="-1.37313">
        <ele>521</ele>
        <time>2010-11-05T21:11:35Z</time>
      </trkpt>
      <trkpt lat="42.11012" lon="-1.3731">
        <ele>526</ele>
        <time>2010-11-05T21:11:43Z</time>
      </trkpt>
      <trkpt lat="42.10997" lon="-1.37302">
        <ele>526</ele>
        <time>2010-11-05T21:11:48Z</time>
      </trkpt>
      <trkpt lat="42.10979" lon="-1.37277">
        <ele>526</ele>
        <time>2010-11-05T21:11:56Z</time>
      </trkpt>
      <trkpt lat="42.1096" lon="-1.37245">
        <ele>524</ele>
        <time>2010-11-05T21:12:05Z</time>
      </trkpt>
      <trkpt lat="42.10942" lon="-1.37209">
        <ele>527</ele>
        <time>2010-11-05T21:12:15Z</time>
      </trkpt>
      <trkpt lat="42.10942" lon="-1.37208">
        <ele>527</ele>
        <time>2010-11-05T21:12:15Z</time>
      </trkpt>
      <trkpt lat="42.10932" lon="-1.37177">
        <ele>527</ele>
        <time>2010-11-05T21:12:23Z</time>
      </trkpt>
      <trkpt lat="42.10915" lon="-1.37145">
        <ele>530</ele>
        <time>2010-11-05T21:12:32Z</time>
      </trkpt>
      <trkpt lat="42.10901" lon="-1.37123">
        <ele>533</ele>
        <time>2010-11-05T21:12:39Z</time>
      </trkpt>
      <trkpt lat="42.10886" lon="-1.37113">
        <ele>533</ele>
        <time>2010-11-05T21:12:43Z</time>
      </trkpt>
      <trkpt lat="42.10865" lon="-1.37107">
        <ele>533</ele>
        <time>2010-11-05T21:12:51Z</time>
      </trkpt>
      <trkpt lat="42.10846" lon="-1.371">
        <ele>532</ele>
        <time>2010-11-05T21:12:56Z</time>
      </trkpt>
      <trkpt lat="42.10817" lon="-1.37079">
        <ele>532</ele>
        <time>2010-11-05T21:13:07Z</time>
      </trkpt>
      <trkpt lat="42.10804" lon="-1.3707">
        <ele>532</ele>
        <time>2010-11-05T21:13:10Z</time>
      </trkpt>
      <trkpt lat="42.10786" lon="-1.37073">
        <ele>532</ele>
        <time>2010-11-05T21:13:17Z</time>
      </trkpt>
      <trkpt lat="42.10759" lon="-1.37081">
        <ele>532</ele>
        <time>2010-11-05T21:13:25Z</time>
      </trkpt>
      <trkpt lat="42.10743" lon="-1.37072">
        <ele>532</ele>
        <time>2010-11-05T21:13:31Z</time>
      </trkpt>
      <trkpt lat="42.10726" lon="-1.37057">
        <ele>537</ele>
        <time>2010-11-05T21:13:36Z</time>
      </trkpt>
      <trkpt lat="42.10708" lon="-1.37058">
        <ele>540</ele>
        <time>2010-11-05T21:13:42Z</time>
      </trkpt>
      <trkpt lat="42.10698" lon="-1.37066">
        <ele>540</ele>
        <time>2010-11-05T21:13:46Z</time>
      </trkpt>
      <trkpt lat="42.10681" lon="-1.3709">
        <ele>537</ele>
        <time>2010-11-05T21:13:53Z</time>
      </trkpt>
      <trkpt lat="42.10665" lon="-1.37103">
        <ele>535</ele>
        <time>2010-11-05T21:14:00Z</time>
      </trkpt>
      <trkpt lat="42.10638" lon="-1.37111">
        <ele>536</ele>
        <time>2010-11-05T21:14:08Z</time>
      </trkpt>
      <trkpt lat="42.10611" lon="-1.37116">
        <ele>535</ele>
        <time>2010-11-05T21:14:17Z</time>
      </trkpt>
      <trkpt lat="42.10583" lon="-1.3711">
        <ele>534</ele>
        <time>2010-11-05T21:14:24Z</time>
      </trkpt>
      <trkpt lat="42.10554" lon="-1.37097">
        <ele>535</ele>
        <time>2010-11-05T21:14:35Z</time>
      </trkpt>
      <trkpt lat="42.1054" lon="-1.37078">
        <ele>531</ele>
        <time>2010-11-05T21:14:41Z</time>
      </trkpt>
      <trkpt lat="42.10531" lon="-1.37042">
        <ele>535</ele>
        <time>2010-11-05T21:14:49Z</time>
      </trkpt>
      <trkpt lat="42.10517" lon="-1.37002">
        <ele>541</ele>
        <time>2010-11-05T21:14:59Z</time>
      </trkpt>
      <trkpt lat="42.10516" lon="-1.36984">
        <ele>542</ele>
        <time>2010-11-05T21:15:04Z</time>
      </trkpt>
      <trkpt lat="42.10523" lon="-1.36958">
        <ele>543</ele>
        <time>2010-11-05T21:15:11Z</time>
      </trkpt>
      <trkpt lat="42.10543" lon="-1.36933">
        <ele>547</ele>
        <time>2010-11-05T21:15:18Z</time>
      </trkpt>
      <trkpt lat="42.10553" lon="-1.3691">
        <ele>548</ele>
        <time>2010-11-05T21:15:24Z</time>
      </trkpt>
      <trkpt lat="42.10559" lon="-1.36883">
        <ele>547</ele>
        <time>2010-11-05T21:15:31Z</time>
      </trkpt>
      <trkpt lat="42.10574" lon="-1.36857">
        <ele>550</ele>
        <time>2010-11-05T21:15:39Z</time>
      </trkpt>
      <trkpt lat="42.10587" lon="-1.3685">
        <ele>550</ele>
        <time>2010-11-05T21:15:43Z</time>
      </trkpt>
      <trkpt lat="42.10613" lon="-1.36846">
        <ele>551</ele>
        <time>2010-11-05T21:15:50Z</time>
      </trkpt>
      <trkpt lat="42.10627" lon="-1.36838">
        <ele>553</ele>
        <time>2010-11-05T21:15:56Z</time>
      </trkpt>
      <trkpt lat="42.10628" lon="-1.36838">
        <ele>553</ele>
        <time>2010-11-05T21:15:56Z</time>
      </trkpt>
      <trkpt lat="42.10644" lon="-1.36816">
        <ele>551</ele>
        <time>2010-11-05T21:16:02Z</time>
      </trkpt>
      <trkpt lat="42.10653" lon="-1.3679">
        <ele>552</ele>
        <time>2010-11-05T21:16:09Z</time>
      </trkpt>
      <trkpt lat="42.10733" lon="-1.36527">
        <ele>542</ele>
        <time>2010-11-05T21:17:14Z</time>
      </trkpt>
      <trkpt lat="42.1073" lon="-1.36517">
        <ele>542</ele>
        <time>2010-11-05T21:17:17Z</time>
      </trkpt>
      <trkpt lat="42.10586" lon="-1.3641">
        <ele>539</ele>
        <time>2010-11-05T21:18:08Z</time>
      </trkpt>
      <trkpt lat="42.10535" lon="-1.36371">
        <ele>536</ele>
        <time>2010-11-05T21:18:26Z</time>
      </trkpt>
      <trkpt lat="42.10479" lon="-1.36318">
        <ele>534</ele>
        <time>2010-11-05T21:18:46Z</time>
      </trkpt>
      <trkpt lat="42.10419" lon="-1.36251">
        <ele>531</ele>
        <time>2010-11-05T21:19:10Z</time>
      </trkpt>
      <trkpt lat="42.10408" lon="-1.36243">
        <ele>531</ele>
        <time>2010-11-05T21:19:15Z</time>
      </trkpt>
      <trkpt lat="42.10391" lon="-1.36238">
        <ele>531</ele>
        <time>2010-11-05T21:19:20Z</time>
      </trkpt>
      <trkpt lat="42.10357" lon="-1.36236">
        <ele>526</ele>
        <time>2010-11-05T21:19:31Z</time>
      </trkpt>
      <trkpt lat="42.10087" lon="-1.36206">
        <ele>526</ele>
        <time>2010-11-05T21:20:55Z</time>
      </trkpt>
      <trkpt lat="42.09917" lon="-1.3619">
        <ele>529</ele>
        <time>2010-11-05T21:21:46Z</time>
      </trkpt>
      <trkpt lat="42.0976" lon="-1.36172">
        <ele>537</ele>
        <time>2010-11-05T21:22:34Z</time>
      </trkpt>
      <trkpt lat="42.09744" lon="-1.36174">
        <ele>537</ele>
        <time>2010-11-05T21:22:40Z</time>
      </trkpt>
      <trkpt lat="42.09614" lon="-1.36225">
        <ele>534</ele>
        <time>2010-11-05T21:23:22Z</time>
      </trkpt>
      <trkpt lat="42.09428" lon="-1.36301">
        <ele>529</ele>
        <time>2010-11-05T21:24:22Z</time>
      </trkpt>
      <trkpt lat="42.09191" lon="-1.36395">
        <ele>526</ele>
        <time>2010-11-05T21:25:37Z</time>
      </trkpt>
      <trkpt lat="42.09095" lon="-1.36436">
        <ele>528</ele>
        <time>2010-11-05T21:26:09Z</time>
      </trkpt>
      <trkpt lat="42.09087" lon="-1.36432">
        <ele>528</ele>
        <time>2010-11-05T21:26:11Z</time>
      </trkpt>
      <trkpt lat="42.08852" lon="-1.36205">
        <ele>521</ele>
        <time>2010-11-05T21:27:40Z</time>
      </trkpt>
      <trkpt lat="42.08746" lon="-1.36104">
        <ele>521</ele>
        <time>2010-11-05T21:28:21Z</time>
      </trkpt>
      <trkpt lat="42.08608" lon="-1.35963">
        <ele>519</ele>
        <time>2010-11-05T21:29:14Z</time>
      </trkpt>
      <trkpt lat="42.08566" lon="-1.35935">
        <ele>517</ele>
        <time>2010-11-05T21:29:28Z</time>
      </trkpt>
      <trkpt lat="42.08355" lon="-1.35804">
        <ele>520</ele>
        <time>2010-11-05T21:30:40Z</time>
      </trkpt>
      <trkpt lat="42.08251" lon="-1.35742">
        <ele>521</ele>
        <time>2010-11-05T21:31:15Z</time>
      </trkpt>
      <trkpt lat="42.07911" lon="-1.35538">
        <ele>520</ele>
        <time>2010-11-05T21:33:08Z</time>
      </trkpt>
      <trkpt lat="42.07819" lon="-1.3548">
        <ele>519</ele>
        <time>2010-11-05T21:33:39Z</time>
      </trkpt>
      <trkpt lat="42.07639" lon="-1.35409">
        <ele>525</ele>
        <time>2010-11-05T21:34:37Z</time>
      </trkpt>
      <trkpt lat="42.076" lon="-1.35381">
        <ele>527</ele>
        <time>2010-11-05T21:34:51Z</time>
      </trkpt>
      <trkpt lat="42.07591" lon="-1.35353">
        <ele>529</ele>
        <time>2010-11-05T21:34:59Z</time>
      </trkpt>
      <trkpt lat="42.07592" lon="-1.35349">
        <ele>529</ele>
        <time>2010-11-05T21:34:59Z</time>
      </trkpt>
      <trkpt lat="42.07589" lon="-1.35286">
        <ele>533</ele>
        <time>2010-11-05T21:35:13Z</time>
      </trkpt>
      <trkpt lat="42.07572" lon="-1.3527">
        <ele>533</ele>
        <time>2010-11-05T21:35:21Z</time>
      </trkpt>
      <trkpt lat="42.07549" lon="-1.35271">
        <ele>534</ele>
        <time>2010-11-05T21:35:28Z</time>
      </trkpt>
      <trkpt lat="42.07523" lon="-1.35271">
        <ele>536</ele>
        <time>2010-11-05T21:35:36Z</time>
      </trkpt>
      <trkpt lat="42.07494" lon="-1.35251">
        <ele>541</ele>
        <time>2010-11-05T21:35:45Z</time>
      </trkpt>
      <trkpt lat="42.07469" lon="-1.35196">
        <ele>548</ele>
        <time>2010-11-05T21:36:01Z</time>
      </trkpt>
      <trkpt lat="42.07446" lon="-1.35134">
        <ele>557</ele>
        <time>2010-11-05T21:36:17Z</time>
      </trkpt>
      <trkpt lat="42.07447" lon="-1.351">
        <ele>556</ele>
        <time>2010-11-05T21:36:25Z</time>
      </trkpt>
      <trkpt lat="42.07445" lon="-1.35072">
        <ele>555</ele>
        <time>2010-11-05T21:36:31Z</time>
      </trkpt>
      <trkpt lat="42.07428" lon="-1.35025">
        <ele>560</ele>
        <time>2010-11-05T21:36:43Z</time>
      </trkpt>
      <trkpt lat="42.07401" lon="-1.34984">
        <ele>562</ele>
        <time>2010-11-05T21:36:55Z</time>
      </trkpt>
      <trkpt lat="42.07356" lon="-1.34939">
        <ele>567</ele>
        <time>2010-11-05T21:37:13Z</time>
      </trkpt>
      <trkpt lat="42.07313" lon="-1.34901">
        <ele>575</ele>
        <time>2010-11-05T21:37:29Z</time>
      </trkpt>
      <trkpt lat="42.07261" lon="-1.34875">
        <ele>588</ele>
        <time>2010-11-05T21:37:45Z</time>
      </trkpt>
      <trkpt lat="42.07225" lon="-1.34838">
        <ele>593</ele>
        <time>2010-11-05T21:38:00Z</time>
      </trkpt>
      <trkpt lat="42.07208" lon="-1.34791">
        <ele>597</ele>
        <time>2010-11-05T21:38:12Z</time>
      </trkpt>
      <trkpt lat="42.07186" lon="-1.34673">
        <ele>594</ele>
        <time>2010-11-05T21:38:39Z</time>
      </trkpt>
      <trkpt lat="42.07173" lon="-1.34609">
        <ele>604</ele>
        <time>2010-11-05T21:38:55Z</time>
      </trkpt>
      <trkpt lat="42.07165" lon="-1.34541">
        <ele>605</ele>
        <time>2010-11-05T21:39:11Z</time>
      </trkpt>
      <trkpt lat="42.0716" lon="-1.34446">
        <ele>609</ele>
        <time>2010-11-05T21:39:33Z</time>
      </trkpt>
      <trkpt lat="42.07151" lon="-1.3432">
        <ele>625</ele>
        <time>2010-11-05T21:40:03Z</time>
      </trkpt>
      <trkpt lat="42.07153" lon="-1.34235">
        <ele>631</ele>
        <time>2010-11-05T21:40:21Z</time>
      </trkpt>
      <trkpt lat="42.07162" lon="-1.34135">
        <ele>631</ele>
        <time>2010-11-05T21:40:45Z</time>
      </trkpt>
      <trkpt lat="42.07192" lon="-1.33997">
        <ele>636</ele>
        <time>2010-11-05T21:41:18Z</time>
      </trkpt>
      <trkpt lat="42.07194" lon="-1.33947">
        <ele>638</ele>
        <time>2010-11-05T21:41:29Z</time>
      </trkpt>
      <trkpt lat="42.07196" lon="-1.33866">
        <ele>638</ele>
        <time>2010-11-05T21:41:48Z</time>
      </trkpt>
      <trkpt lat="42.07192" lon="-1.33859">
        <ele>638</ele>
        <time>2010-11-05T21:41:50Z</time>
      </trkpt>
      <trkpt lat="42.07187" lon="-1.33862">
        <ele>638</ele>
        <time>2010-11-05T21:41:51Z</time>
      </trkpt>
      <trkpt lat="42.07182" lon="-1.33871">
        <ele>638</ele>
        <time>2010-11-05T21:41:55Z</time>
      </trkpt>
      <trkpt lat="42.07181" lon="-1.33914">
        <ele>638</ele>
        <time>2010-11-05T21:42:04Z</time>
      </trkpt>
      <trkpt lat="42.07178" lon="-1.33944">
        <ele>640</ele>
        <time>2010-11-05T21:42:11Z</time>
      </trkpt>
      <trkpt lat="42.07169" lon="-1.33976">
        <ele>640</ele>
        <time>2010-11-05T21:42:18Z</time>
      </trkpt>
      <trkpt lat="42.07159" lon="-1.33989">
        <ele>640</ele>
        <time>2010-11-05T21:42:22Z</time>
      </trkpt>
      <trkpt lat="42.07146" lon="-1.34013">
        <ele>641</ele>
        <time>2010-11-05T21:42:30Z</time>
      </trkpt>
      <trkpt lat="42.07137" lon="-1.34041">
        <ele>641</ele>
        <time>2010-11-05T21:42:37Z</time>
      </trkpt>
      <trkpt lat="42.07125" lon="-1.34089">
        <ele>640</ele>
        <time>2010-11-05T21:42:49Z</time>
      </trkpt>
      <trkpt lat="42.07122" lon="-1.34111">
        <ele>639</ele>
        <time>2010-11-05T21:42:54Z</time>
      </trkpt>
      <trkpt lat="42.07117" lon="-1.34119">
        <ele>639</ele>
        <time>2010-11-05T21:42:55Z</time>
      </trkpt>
      <trkpt lat="42.07104" lon="-1.34115">
        <ele>639</ele>
        <time>2010-11-05T21:43:00Z</time>
      </trkpt>
      <trkpt lat="42.0708" lon="-1.34104">
        <ele>640</ele>
        <time>2010-11-05T21:43:08Z</time>
      </trkpt>
      <trkpt lat="42.07055" lon="-1.34098">
        <ele>639</ele>
        <time>2010-11-05T21:43:16Z</time>
      </trkpt>
      <trkpt lat="42.07041" lon="-1.3411">
        <ele>638</ele>
        <time>2010-11-05T21:43:21Z</time>
      </trkpt>
      <trkpt lat="42.07034" lon="-1.34122">
        <ele>638</ele>
        <time>2010-11-05T21:43:25Z</time>
      </trkpt>
      <trkpt lat="42.07027" lon="-1.3414">
        <ele>638</ele>
        <time>2010-11-05T21:43:29Z</time>
      </trkpt>
      <trkpt lat="42.07026" lon="-1.34141">
        <ele>638</ele>
        <time>2010-11-05T21:43:30Z</time>
      </trkpt>
      <trkpt lat="42.07014" lon="-1.34154">
        <ele>638</ele>
        <time>2010-11-05T21:43:33Z</time>
      </trkpt>
      <trkpt lat="42.07004" lon="-1.34164">
        <ele>637</ele>
        <time>2010-11-05T21:43:38Z</time>
      </trkpt>
      <trkpt lat="42.07001" lon="-1.34197">
        <ele>637</ele>
        <time>2010-11-05T21:43:46Z</time>
      </trkpt>
      <trkpt lat="42.07" lon="-1.34255">
        <ele>636</ele>
        <time>2010-11-05T21:43:59Z</time>
      </trkpt>
      <trkpt lat="42.07" lon="-1.34258">
        <ele>636</ele>
        <time>2010-11-05T21:44:00Z</time>
      </trkpt>
      <trkpt lat="42.06998" lon="-1.3433">
        <ele>636</ele>
        <time>2010-11-05T21:44:16Z</time>
      </trkpt>
      <trkpt lat="42.06995" lon="-1.34364">
        <ele>636</ele>
        <time>2010-11-05T21:44:23Z</time>
      </trkpt>
      <trkpt lat="42.07003" lon="-1.34419">
        <ele>636</ele>
        <time>2010-11-05T21:44:37Z</time>
      </trkpt>
      <trkpt lat="42.07017" lon="-1.34492">
        <ele>635</ele>
        <time>2010-11-05T21:44:54Z</time>
      </trkpt>
      <trkpt lat="42.0702" lon="-1.34537">
        <ele>635</ele>
        <time>2010-11-05T21:45:04Z</time>
      </trkpt>
      <trkpt lat="42.07013" lon="-1.3459">
        <ele>635</ele>
        <time>2010-11-05T21:45:17Z</time>
      </trkpt>
      <trkpt lat="42.07009" lon="-1.3463">
        <ele>637</ele>
        <time>2010-11-05T21:45:26Z</time>
      </trkpt>
      <trkpt lat="42.0702" lon="-1.34672">
        <ele>639</ele>
        <time>2010-11-05T21:45:36Z</time>
      </trkpt>
      <trkpt lat="42.07021" lon="-1.34734">
        <ele>641</ele>
        <time>2010-11-05T21:45:50Z</time>
      </trkpt>
      <trkpt lat="42.07021" lon="-1.34805">
        <ele>639</ele>
        <time>2010-11-05T21:46:06Z</time>
      </trkpt>
      <trkpt lat="42.07023" lon="-1.34842">
        <ele>638</ele>
        <time>2010-11-05T21:46:16Z</time>
      </trkpt>
      <trkpt lat="42.07025" lon="-1.34866">
        <ele>637</ele>
        <time>2010-11-05T21:46:20Z</time>
      </trkpt>
      <trkpt lat="42.07018" lon="-1.34873">
        <ele>637</ele>
        <time>2010-11-05T21:46:24Z</time>
      </trkpt>
      <trkpt lat="42.06998" lon="-1.34889">
        <ele>635</ele>
        <time>2010-11-05T21:46:30Z</time>
      </trkpt>
      <trkpt lat="42.06997" lon="-1.3489">
        <ele>635</ele>
        <time>2010-11-05T21:46:30Z</time>
      </trkpt>
      <trkpt lat="42.06978" lon="-1.34908">
        <ele>632</ele>
        <time>2010-11-05T21:46:39Z</time>
      </trkpt>
      <trkpt lat="42.06958" lon="-1.34943">
        <ele>629</ele>
        <time>2010-11-05T21:46:49Z</time>
      </trkpt>
      <trkpt lat="42.0695" lon="-1.3496">
        <ele>628</ele>
        <time>2010-11-05T21:46:52Z</time>
      </trkpt>
      <trkpt lat="42.06943" lon="-1.34986">
        <ele>628</ele>
        <time>2010-11-05T21:46:59Z</time>
      </trkpt>
      <trkpt lat="42.06948" lon="-1.35001">
        <ele>627</ele>
        <time>2010-11-05T21:47:02Z</time>
      </trkpt>
      <trkpt lat="42.0696" lon="-1.35041">
        <ele>628</ele>
        <time>2010-11-05T21:47:13Z</time>
      </trkpt>
      <trkpt lat="42.06975" lon="-1.35086">
        <ele>627</ele>
        <time>2010-11-05T21:47:24Z</time>
      </trkpt>
      <trkpt lat="42.06976" lon="-1.35087">
        <ele>627</ele>
        <time>2010-11-05T21:47:24Z</time>
      </trkpt>
      <trkpt lat="42.06987" lon="-1.35146">
        <ele>630</ele>
        <time>2010-11-05T21:47:38Z</time>
      </trkpt>
      <trkpt lat="42.06991" lon="-1.35188">
        <ele>630</ele>
        <time>2010-11-05T21:47:48Z</time>
      </trkpt>
      <trkpt lat="42.06987" lon="-1.35213">
        <ele>629</ele>
        <time>2010-11-05T21:47:53Z</time>
      </trkpt>
      <trkpt lat="42.06984" lon="-1.3525">
        <ele>625</ele>
        <time>2010-11-05T21:48:02Z</time>
      </trkpt>
      <trkpt lat="42.06984" lon="-1.35251">
        <ele>625</ele>
        <time>2010-11-05T21:48:02Z</time>
      </trkpt>
      <trkpt lat="42.06987" lon="-1.35295">
        <ele>628</ele>
        <time>2010-11-05T21:48:12Z</time>
      </trkpt>
      <trkpt lat="42.06991" lon="-1.35324">
        <ele>629</ele>
        <time>2010-11-05T21:48:20Z</time>
      </trkpt>
      <trkpt lat="42.06986" lon="-1.35347">
        <ele>629</ele>
        <time>2010-11-05T21:48:26Z</time>
      </trkpt>
      <trkpt lat="42.06981" lon="-1.35386">
        <ele>628</ele>
        <time>2010-11-05T21:48:34Z</time>
      </trkpt>
      <trkpt lat="42.06973" lon="-1.3544">
        <ele>629</ele>
        <time>2010-11-05T21:48:47Z</time>
      </trkpt>
      <trkpt lat="42.06959" lon="-1.35463">
        <ele>629</ele>
        <time>2010-11-05T21:48:53Z</time>
      </trkpt>
      <trkpt lat="42.06953" lon="-1.35485">
        <ele>627</ele>
        <time>2010-11-05T21:49:00Z</time>
      </trkpt>
      <trkpt lat="42.06945" lon="-1.35522">
        <ele>627</ele>
        <time>2010-11-05T21:49:08Z</time>
      </trkpt>
      <trkpt lat="42.06939" lon="-1.35552">
        <ele>626</ele>
        <time>2010-11-05T21:49:16Z</time>
      </trkpt>
      <trkpt lat="42.06947" lon="-1.35598">
        <ele>625</ele>
        <time>2010-11-05T21:49:25Z</time>
      </trkpt>
      <trkpt lat="42.06947" lon="-1.35599">
        <ele>625</ele>
        <time>2010-11-05T21:49:25Z</time>
      </trkpt>
      <trkpt lat="42.06959" lon="-1.35657">
        <ele>628</ele>
        <time>2010-11-05T21:49:39Z</time>
      </trkpt>
      <trkpt lat="42.06957" lon="-1.35677">
        <ele>626</ele>
        <time>2010-11-05T21:49:44Z</time>
      </trkpt>
      <trkpt lat="42.06943" lon="-1.357">
        <ele>626</ele>
        <time>2010-11-05T21:49:52Z</time>
      </trkpt>
      <trkpt lat="42.06914" lon="-1.35759">
        <ele>629</ele>
        <time>2010-11-05T21:50:08Z</time>
      </trkpt>
      <trkpt lat="42.06891" lon="-1.35807">
        <ele>631</ele>
        <time>2010-11-05T21:50:21Z</time>
      </trkpt>
      <trkpt lat="42.06885" lon="-1.35848">
        <ele>629</ele>
        <time>2010-11-05T21:50:30Z</time>
      </trkpt>
      <trkpt lat="42.06884" lon="-1.35849">
        <ele>629</ele>
        <time>2010-11-05T21:50:30Z</time>
      </trkpt>
      <trkpt lat="42.06889" lon="-1.35907">
        <ele>629</ele>
        <time>2010-11-05T21:50:43Z</time>
      </trkpt>
      <trkpt lat="42.0689" lon="-1.35909">
        <ele>629</ele>
        <time>2010-11-05T21:50:45Z</time>
      </trkpt>
      <trkpt lat="42.06901" lon="-1.3596">
        <ele>629</ele>
        <time>2010-11-05T21:50:57Z</time>
      </trkpt>
      <trkpt lat="42.06916" lon="-1.35988">
        <ele>629</ele>
        <time>2010-11-05T21:51:04Z</time>
      </trkpt>
      <trkpt lat="42.06916" lon="-1.35989">
        <ele>629</ele>
        <time>2010-11-05T21:51:04Z</time>
      </trkpt>
      <trkpt lat="42.06974" lon="-1.36109">
        <ele>634</ele>
        <time>2010-11-05T21:51:37Z</time>
      </trkpt>
      <trkpt lat="42.06999" lon="-1.36171">
        <ele>635</ele>
        <time>2010-11-05T21:51:53Z</time>
      </trkpt>
      <trkpt lat="42.07003" lon="-1.36213">
        <ele>635</ele>
        <time>2010-11-05T21:52:04Z</time>
      </trkpt>
      <trkpt lat="42.07001" lon="-1.36279">
        <ele>635</ele>
        <time>2010-11-05T21:52:19Z</time>
      </trkpt>
      <trkpt lat="42.06996" lon="-1.36311">
        <ele>635</ele>
        <time>2010-11-05T21:52:26Z</time>
      </trkpt>
      <trkpt lat="42.0699" lon="-1.36371">
        <ele>636</ele>
        <time>2010-11-05T21:52:39Z</time>
      </trkpt>
      <trkpt lat="42.06992" lon="-1.36457">
        <ele>638</ele>
        <time>2010-11-05T21:53:00Z</time>
      </trkpt>
      <trkpt lat="42.06999" lon="-1.36516">
        <ele>639</ele>
        <time>2010-11-05T21:53:13Z</time>
      </trkpt>
      <trkpt lat="42.07001" lon="-1.36573">
        <ele>639</ele>
        <time>2010-11-05T21:53:27Z</time>
      </trkpt>
      <trkpt lat="42.07013" lon="-1.36673">
        <ele>637</ele>
        <time>2010-11-05T21:53:49Z</time>
      </trkpt>
      <trkpt lat="42.07017" lon="-1.36744">
        <ele>642</ele>
        <time>2010-11-05T21:54:05Z</time>
      </trkpt>
      <trkpt lat="42.07024" lon="-1.36816">
        <ele>643</ele>
        <time>2010-11-05T21:54:23Z</time>
      </trkpt>
      <trkpt lat="42.07021" lon="-1.36843">
        <ele>643</ele>
        <time>2010-11-05T21:54:29Z</time>
      </trkpt>
      <trkpt lat="42.06997" lon="-1.36929">
        <ele>642</ele>
        <time>2010-11-05T21:54:50Z</time>
      </trkpt>
      <trkpt lat="42.06975" lon="-1.37079">
        <ele>639</ele>
        <time>2010-11-05T21:55:25Z</time>
      </trkpt>
      <trkpt lat="42.06943" lon="-1.37361">
        <ele>637</ele>
        <time>2010-11-05T21:56:30Z</time>
      </trkpt>
      <trkpt lat="42.06915" lon="-1.37771">
        <ele>644</ele>
        <time>2010-11-05T21:58:04Z</time>
      </trkpt>
      <trkpt lat="42.06912" lon="-1.37794">
        <ele>644</ele>
        <time>2010-11-05T21:58:10Z</time>
      </trkpt>
      <trkpt lat="42.06901" lon="-1.37828">
        <ele>644</ele>
        <time>2010-11-05T21:58:18Z</time>
      </trkpt>
      <trkpt lat="42.06858" lon="-1.37926">
        <ele>644</ele>
        <time>2010-11-05T21:58:45Z</time>
      </trkpt>
      <trkpt lat="42.06836" lon="-1.37982">
        <ele>643</ele>
        <time>2010-11-05T21:58:58Z</time>
      </trkpt>
      <trkpt lat="42.0681" lon="-1.38058">
        <ele>642</ele>
        <time>2010-11-05T21:59:19Z</time>
      </trkpt>
      <trkpt lat="42.06809" lon="-1.38061">
        <ele>642</ele>
        <time>2010-11-05T21:59:19Z</time>
      </trkpt>
      <trkpt lat="42.0678" lon="-1.38129">
        <ele>640</ele>
        <time>2010-11-05T21:59:36Z</time>
      </trkpt>
      <trkpt lat="42.06779" lon="-1.38131">
        <ele>640</ele>
        <time>2010-11-05T21:59:38Z</time>
      </trkpt>
      <trkpt lat="42.06751" lon="-1.38216">
        <ele>639</ele>
        <time>2010-11-05T21:59:59Z</time>
      </trkpt>
      <trkpt lat="42.06734" lon="-1.38263">
        <ele>640</ele>
        <time>2010-11-05T22:00:11Z</time>
      </trkpt>
      <trkpt lat="42.06718" lon="-1.38332">
        <ele>637</ele>
        <time>2010-11-05T22:00:27Z</time>
      </trkpt>
      <trkpt lat="42.06718" lon="-1.38334">
        <ele>637</ele>
        <time>2010-11-05T22:00:27Z</time>
      </trkpt>
      <trkpt lat="42.06697" lon="-1.38412">
        <ele>637</ele>
        <time>2010-11-05T22:00:47Z</time>
      </trkpt>
      <trkpt lat="42.06686" lon="-1.38445">
        <ele>637</ele>
        <time>2010-11-05T22:00:54Z</time>
      </trkpt>
      <trkpt lat="42.06684" lon="-1.38469">
        <ele>637</ele>
        <time>2010-11-05T22:01:01Z</time>
      </trkpt>
      <trkpt lat="42.06686" lon="-1.38541">
        <ele>639</ele>
        <time>2010-11-05T22:01:18Z</time>
      </trkpt>
      <trkpt lat="42.06676" lon="-1.3861">
        <ele>639</ele>
        <time>2010-11-05T22:01:34Z</time>
      </trkpt>
      <trkpt lat="42.06648" lon="-1.3872">
        <ele>642</ele>
        <time>2010-11-05T22:02:00Z</time>
      </trkpt>
      <trkpt lat="42.06597" lon="-1.38832">
        <ele>642</ele>
        <time>2010-11-05T22:02:30Z</time>
      </trkpt>
      <trkpt lat="42.06585" lon="-1.38864">
        <ele>642</ele>
        <time>2010-11-05T22:02:38Z</time>
      </trkpt>
      <trkpt lat="42.06572" lon="-1.38889">
        <ele>641</ele>
        <time>2010-11-05T22:02:46Z</time>
      </trkpt>
      <trkpt lat="42.06542" lon="-1.38916">
        <ele>640</ele>
        <time>2010-11-05T22:02:57Z</time>
      </trkpt>
      <trkpt lat="42.0652" lon="-1.38937">
        <ele>637</ele>
        <time>2010-11-05T22:03:05Z</time>
      </trkpt>
      <trkpt lat="42.06506" lon="-1.38966">
        <ele>634</ele>
        <time>2010-11-05T22:03:13Z</time>
      </trkpt>
      <trkpt lat="42.06501" lon="-1.38986">
        <ele>634</ele>
        <time>2010-11-05T22:03:18Z</time>
      </trkpt>
      <trkpt lat="42.06503" lon="-1.39004">
        <ele>633</ele>
        <time>2010-11-05T22:03:22Z</time>
      </trkpt>
      <trkpt lat="42.06513" lon="-1.39016">
        <ele>633</ele>
        <time>2010-11-05T22:03:26Z</time>
      </trkpt>
      <trkpt lat="42.06535" lon="-1.39075">
        <ele>630</ele>
        <time>2010-11-05T22:03:41Z</time>
      </trkpt>
      <trkpt lat="42.06534" lon="-1.39105">
        <ele>629</ele>
        <time>2010-11-05T22:03:48Z</time>
      </trkpt>
      <trkpt lat="42.06488" lon="-1.39297">
        <ele>622</ele>
        <time>2010-11-05T22:04:34Z</time>
      </trkpt>
      <trkpt lat="42.06459" lon="-1.39422">
        <ele>618</ele>
        <time>2010-11-05T22:05:04Z</time>
      </trkpt>
      <trkpt lat="42.06442" lon="-1.39568">
        <ele>607</ele>
        <time>2010-11-05T22:05:39Z</time>
      </trkpt>
      <trkpt lat="42.06407" lon="-1.39699">
        <ele>594</ele>
        <time>2010-11-05T22:06:11Z</time>
      </trkpt>
      <trkpt lat="42.06377" lon="-1.39834">
        <ele>581</ele>
        <time>2010-11-05T22:06:43Z</time>
      </trkpt>
      <trkpt lat="42.06358" lon="-1.39995">
        <ele>569</ele>
        <time>2010-11-05T22:07:21Z</time>
      </trkpt>
      <trkpt lat="42.06351" lon="-1.40069">
        <ele>566</ele>
        <time>2010-11-05T22:07:37Z</time>
      </trkpt>
      <trkpt lat="42.06344" lon="-1.4013">
        <ele>572</ele>
        <time>2010-11-05T22:07:52Z</time>
      </trkpt>
      <trkpt lat="42.06339" lon="-1.40186">
        <ele>566</ele>
        <time>2010-11-05T22:08:04Z</time>
      </trkpt>
      <trkpt lat="42.06346" lon="-1.40227">
        <ele>563</ele>
        <time>2010-11-05T22:08:15Z</time>
      </trkpt>
      <trkpt lat="42.06343" lon="-1.40267">
        <ele>557</ele>
        <time>2010-11-05T22:08:23Z</time>
      </trkpt>
      <trkpt lat="42.06331" lon="-1.40316">
        <ele>554</ele>
        <time>2010-11-05T22:08:36Z</time>
      </trkpt>
      <trkpt lat="42.06333" lon="-1.40333">
        <ele>551</ele>
        <time>2010-11-05T22:08:39Z</time>
      </trkpt>
      <trkpt lat="42.06343" lon="-1.4033">
        <ele>551</ele>
        <time>2010-11-05T22:08:43Z</time>
      </trkpt>
      <trkpt lat="42.06369" lon="-1.40301">
        <ele>547</ele>
        <time>2010-11-05T22:08:52Z</time>
      </trkpt>
      <trkpt lat="42.06399" lon="-1.40262">
        <ele>546</ele>
        <time>2010-11-05T22:09:06Z</time>
      </trkpt>
      <trkpt lat="42.0643" lon="-1.40249">
        <ele>539</ele>
        <time>2010-11-05T22:09:16Z</time>
      </trkpt>
      <trkpt lat="42.06461" lon="-1.40219">
        <ele>528</ele>
        <time>2010-11-05T22:09:29Z</time>
      </trkpt>
      <trkpt lat="42.06477" lon="-1.40172">
        <ele>533</ele>
        <time>2010-11-05T22:09:41Z</time>
      </trkpt>
      <trkpt lat="42.06499" lon="-1.4016">
        <ele>527</ele>
        <time>2010-11-05T22:09:48Z</time>
      </trkpt>
      <trkpt lat="42.06541" lon="-1.40147">
        <ele>524</ele>
        <time>2010-11-05T22:10:02Z</time>
      </trkpt>
      <trkpt lat="42.06566" lon="-1.40144">
        <ele>520</ele>
        <time>2010-11-05T22:10:08Z</time>
      </trkpt>
      <trkpt lat="42.06595" lon="-1.40113">
        <ele>517</ele>
        <time>2010-11-05T22:10:21Z</time>
      </trkpt>
      <trkpt lat="42.06611" lon="-1.40085">
        <ele>513</ele>
        <time>2010-11-05T22:10:29Z</time>
      </trkpt>
      <trkpt lat="42.06634" lon="-1.40071">
        <ele>508</ele>
        <time>2010-11-05T22:10:37Z</time>
      </trkpt>
      <trkpt lat="42.06667" lon="-1.40072">
        <ele>502</ele>
        <time>2010-11-05T22:10:47Z</time>
      </trkpt>
      <trkpt lat="42.06703" lon="-1.40079">
        <ele>496</ele>
        <time>2010-11-05T22:10:58Z</time>
      </trkpt>
      <trkpt lat="42.0673" lon="-1.40089">
        <ele>489</ele>
        <time>2010-11-05T22:11:07Z</time>
      </trkpt>
      <trkpt lat="42.06759" lon="-1.40131">
        <ele>482</ele>
        <time>2010-11-05T22:11:20Z</time>
      </trkpt>
      <trkpt lat="42.06792" lon="-1.40157">
        <ele>472</ele>
        <time>2010-11-05T22:11:33Z</time>
      </trkpt>
      <trkpt lat="42.06826" lon="-1.40213">
        <ele>467</ele>
        <time>2010-11-05T22:11:49Z</time>
      </trkpt>
      <trkpt lat="42.0685" lon="-1.40243">
        <ele>465</ele>
        <time>2010-11-05T22:11:58Z</time>
      </trkpt>
      <trkpt lat="42.06886" lon="-1.40268">
        <ele>463</ele>
        <time>2010-11-05T22:12:11Z</time>
      </trkpt>
      <trkpt lat="42.06904" lon="-1.40292">
        <ele>460</ele>
        <time>2010-11-05T22:12:20Z</time>
      </trkpt>
      <trkpt lat="42.06934" lon="-1.40332">
        <ele>458</ele>
        <time>2010-11-05T22:12:33Z</time>
      </trkpt>
      <trkpt lat="42.06943" lon="-1.40348">
        <ele>457</ele>
        <time>2010-11-05T22:12:37Z</time>
      </trkpt>
      <trkpt lat="42.06948" lon="-1.4038">
        <ele>457</ele>
        <time>2010-11-05T22:12:44Z</time>
      </trkpt>
      <trkpt lat="42.06945" lon="-1.4042">
        <ele>457</ele>
        <time>2010-11-05T22:12:54Z</time>
      </trkpt>
      <trkpt lat="42.06941" lon="-1.40477">
        <ele>456</ele>
        <time>2010-11-05T22:13:07Z</time>
      </trkpt>
      <trkpt lat="42.06948" lon="-1.40542">
        <ele>455</ele>
        <time>2010-11-05T22:13:21Z</time>
      </trkpt>
      <trkpt lat="42.06971" lon="-1.40619">
        <ele>451</ele>
        <time>2010-11-05T22:13:40Z</time>
      </trkpt>
      <trkpt lat="42.06997" lon="-1.40655">
        <ele>448</ele>
        <time>2010-11-05T22:13:53Z</time>
      </trkpt>
      <trkpt lat="42.07031" lon="-1.40723">
        <ele>444</ele>
        <time>2010-11-05T22:14:12Z</time>
      </trkpt>
      <trkpt lat="42.07032" lon="-1.40725">
        <ele>444</ele>
        <time>2010-11-05T22:14:12Z</time>
      </trkpt>
      <trkpt lat="42.07064" lon="-1.4076">
        <ele>442</ele>
        <time>2010-11-05T22:14:25Z</time>
      </trkpt>
      <trkpt lat="42.07097" lon="-1.40795">
        <ele>441</ele>
        <time>2010-11-05T22:14:38Z</time>
      </trkpt>
      <trkpt lat="42.07115" lon="-1.40822">
        <ele>441</ele>
        <time>2010-11-05T22:14:45Z</time>
      </trkpt>
      <trkpt lat="42.07138" lon="-1.4086">
        <ele>440</ele>
        <time>2010-11-05T22:14:57Z</time>
      </trkpt>
      <trkpt lat="42.07156" lon="-1.40913">
        <ele>438</ele>
        <time>2010-11-05T22:15:11Z</time>
      </trkpt>
      <trkpt lat="42.07166" lon="-1.40964">
        <ele>435</ele>
        <time>2010-11-05T22:15:22Z</time>
      </trkpt>
      <trkpt lat="42.07167" lon="-1.41007">
        <ele>433</ele>
        <time>2010-11-05T22:15:32Z</time>
      </trkpt>
      <trkpt lat="42.07173" lon="-1.4107">
        <ele>433</ele>
        <time>2010-11-05T22:15:47Z</time>
      </trkpt>
      <trkpt lat="42.07183" lon="-1.41126">
        <ele>431</ele>
        <time>2010-11-05T22:16:00Z</time>
      </trkpt>
      <trkpt lat="42.07176" lon="-1.41205">
        <ele>431</ele>
        <time>2010-11-05T22:16:18Z</time>
      </trkpt>
      <trkpt lat="42.07169" lon="-1.41241">
        <ele>433</ele>
        <time>2010-11-05T22:16:26Z</time>
      </trkpt>
      <trkpt lat="42.07127" lon="-1.41355">
        <ele>432</ele>
        <time>2010-11-05T22:16:56Z</time>
      </trkpt>
      <trkpt lat="42.07105" lon="-1.41451">
        <ele>427</ele>
        <time>2010-11-05T22:17:18Z</time>
      </trkpt>
      <trkpt lat="42.07084" lon="-1.41526">
        <ele>424</ele>
        <time>2010-11-05T22:17:36Z</time>
      </trkpt>
      <trkpt lat="42.07075" lon="-1.41594">
        <ele>423</ele>
        <time>2010-11-05T22:17:53Z</time>
      </trkpt>
      <trkpt lat="42.07077" lon="-1.41664">
        <ele>419</ele>
        <time>2010-11-05T22:18:08Z</time>
      </trkpt>
      <trkpt lat="42.07086" lon="-1.41709">
        <ele>417</ele>
        <time>2010-11-05T22:18:20Z</time>
      </trkpt>
      <trkpt lat="42.07108" lon="-1.4176">
        <ele>416</ele>
        <time>2010-11-05T22:18:33Z</time>
      </trkpt>
      <trkpt lat="42.07117" lon="-1.41791">
        <ele>414</ele>
        <time>2010-11-05T22:18:41Z</time>
      </trkpt>
      <trkpt lat="42.07121" lon="-1.4184">
        <ele>412</ele>
        <time>2010-11-05T22:18:52Z</time>
      </trkpt>
      <trkpt lat="42.07116" lon="-1.4188">
        <ele>411</ele>
        <time>2010-11-05T22:19:02Z</time>
      </trkpt>
      <trkpt lat="42.07117" lon="-1.41952">
        <ele>411</ele>
        <time>2010-11-05T22:19:18Z</time>
      </trkpt>
      <trkpt lat="42.07114" lon="-1.41986">
        <ele>411</ele>
        <time>2010-11-05T22:19:26Z</time>
      </trkpt>
      <trkpt lat="42.07105" lon="-1.42043">
        <ele>408</ele>
        <time>2010-11-05T22:19:40Z</time>
      </trkpt>
      <trkpt lat="42.0708" lon="-1.42103">
        <ele>409</ele>
        <time>2010-11-05T22:19:56Z</time>
      </trkpt>
      <trkpt lat="42.07061" lon="-1.42142">
        <ele>407</ele>
        <time>2010-11-05T22:20:05Z</time>
      </trkpt>
      <trkpt lat="42.07046" lon="-1.42174">
        <ele>405</ele>
        <time>2010-11-05T22:20:15Z</time>
      </trkpt>
      <trkpt lat="42.07045" lon="-1.42229">
        <ele>398</ele>
        <time>2010-11-05T22:20:28Z</time>
      </trkpt>
      <trkpt lat="42.07053" lon="-1.42285">
        <ele>396</ele>
        <time>2010-11-05T22:20:40Z</time>
      </trkpt>
      <trkpt lat="42.07071" lon="-1.42371">
        <ele>394</ele>
        <time>2010-11-05T22:21:01Z</time>
      </trkpt>
      <trkpt lat="42.07091" lon="-1.42458">
        <ele>393</ele>
        <time>2010-11-05T22:21:22Z</time>
      </trkpt>
      <trkpt lat="42.07091" lon="-1.42488">
        <ele>393</ele>
        <time>2010-11-05T22:21:28Z</time>
      </trkpt>
      <trkpt lat="42.07097" lon="-1.42483">
        <ele>393</ele>
        <time>2010-11-05T22:21:31Z</time>
      </trkpt>
      <trkpt lat="42.0711" lon="-1.42464">
        <ele>394</ele>
        <time>2010-11-05T22:21:36Z</time>
      </trkpt>
      <trkpt lat="42.07153" lon="-1.42428">
        <ele>397</ele>
        <time>2010-11-05T22:21:52Z</time>
      </trkpt>
      <trkpt lat="42.07197" lon="-1.4239">
        <ele>403</ele>
        <time>2010-11-05T22:22:08Z</time>
      </trkpt>
      <trkpt lat="42.07263" lon="-1.42357">
        <ele>397</ele>
        <time>2010-11-05T22:22:29Z</time>
      </trkpt>
      <trkpt lat="42.07297" lon="-1.42339">
        <ele>393</ele>
        <time>2010-11-05T22:22:41Z</time>
      </trkpt>
      <trkpt lat="42.07303" lon="-1.42309">
        <ele>393</ele>
        <time>2010-11-05T22:22:48Z</time>
      </trkpt>
      <trkpt lat="42.07318" lon="-1.42254">
        <ele>395</ele>
        <time>2010-11-05T22:23:02Z</time>
      </trkpt>
      <trkpt lat="42.07335" lon="-1.42198">
        <ele>399</ele>
        <time>2010-11-05T22:23:16Z</time>
      </trkpt>
      <trkpt lat="42.07354" lon="-1.42164">
        <ele>401</ele>
        <time>2010-11-05T22:23:26Z</time>
      </trkpt>
      <trkpt lat="42.07376" lon="-1.42116">
        <ele>404</ele>
        <time>2010-11-05T22:23:39Z</time>
      </trkpt>
      <trkpt lat="42.07377" lon="-1.42112">
        <ele>404</ele>
        <time>2010-11-05T22:23:39Z</time>
      </trkpt>
      <trkpt lat="42.07397" lon="-1.42053">
        <ele>406</ele>
        <time>2010-11-05T22:23:53Z</time>
      </trkpt>
      <trkpt lat="42.07425" lon="-1.42013">
        <ele>408</ele>
        <time>2010-11-05T22:24:07Z</time>
      </trkpt>
      <trkpt lat="42.07427" lon="-1.42011">
        <ele>408</ele>
        <time>2010-11-05T22:24:07Z</time>
      </trkpt>
      <trkpt lat="42.07455" lon="-1.41989">
        <ele>409</ele>
        <time>2010-11-05T22:24:17Z</time>
      </trkpt>
      <trkpt lat="42.07487" lon="-1.41945">
        <ele>412</ele>
        <time>2010-11-05T22:24:31Z</time>
      </trkpt>
      <trkpt lat="42.07507" lon="-1.41898">
        <ele>410</ele>
        <time>2010-11-05T22:24:44Z</time>
      </trkpt>
      <trkpt lat="42.07507" lon="-1.41894">
        <ele>410</ele>
        <time>2010-11-05T22:24:44Z</time>
      </trkpt>
      <trkpt lat="42.07525" lon="-1.41847">
        <ele>411</ele>
        <time>2010-11-05T22:24:57Z</time>
      </trkpt>
      <trkpt lat="42.07538" lon="-1.41797">
        <ele>411</ele>
        <time>2010-11-05T22:25:08Z</time>
      </trkpt>
      <trkpt lat="42.07549" lon="-1.41752">
        <ele>415</ele>
        <time>2010-11-05T22:25:19Z</time>
      </trkpt>
      <trkpt lat="42.07578" lon="-1.41684">
        <ele>417</ele>
        <time>2010-11-05T22:25:38Z</time>
      </trkpt>
      <trkpt lat="42.07603" lon="-1.41639">
        <ele>418</ele>
        <time>2010-11-05T22:25:51Z</time>
      </trkpt>
      <trkpt lat="42.07628" lon="-1.41556">
        <ele>418</ele>
        <time>2010-11-05T22:26:12Z</time>
      </trkpt>
      <trkpt lat="42.07652" lon="-1.41482">
        <ele>420</ele>
        <time>2010-11-05T22:26:29Z</time>
      </trkpt>
      <trkpt lat="42.07672" lon="-1.41405">
        <ele>423</ele>
        <time>2010-11-05T22:26:48Z</time>
      </trkpt>
      <trkpt lat="42.07673" lon="-1.41349">
        <ele>425</ele>
        <time>2010-11-05T22:27:02Z</time>
      </trkpt>
      <trkpt lat="42.07668" lon="-1.41279">
        <ele>426</ele>
        <time>2010-11-05T22:27:18Z</time>
      </trkpt>
      <trkpt lat="42.07682" lon="-1.41238">
        <ele>425</ele>
        <time>2010-11-05T22:27:28Z</time>
      </trkpt>
      <trkpt lat="42.07714" lon="-1.41203">
        <ele>424</ele>
        <time>2010-11-05T22:27:41Z</time>
      </trkpt>
      <trkpt lat="42.07738" lon="-1.41193">
        <ele>424</ele>
        <time>2010-11-05T22:27:49Z</time>
      </trkpt>
      <trkpt lat="42.07767" lon="-1.41196">
        <ele>423</ele>
        <time>2010-11-05T22:27:57Z</time>
      </trkpt>
      <trkpt lat="42.07808" lon="-1.41218">
        <ele>420</ele>
        <time>2010-11-05T22:28:11Z</time>
      </trkpt>
      <trkpt lat="42.07833" lon="-1.41239">
        <ele>418</ele>
        <time>2010-11-05T22:28:19Z</time>
      </trkpt>
      <trkpt lat="42.07865" lon="-1.41247">
        <ele>418</ele>
        <time>2010-11-05T22:28:30Z</time>
      </trkpt>
      <trkpt lat="42.07866" lon="-1.41247">
        <ele>418</ele>
        <time>2010-11-05T22:28:30Z</time>
      </trkpt>
      <trkpt lat="42.079" lon="-1.41231">
        <ele>421</ele>
        <time>2010-11-05T22:28:41Z</time>
      </trkpt>
      <trkpt lat="42.07911" lon="-1.41187">
        <ele>421</ele>
        <time>2010-11-05T22:28:51Z</time>
      </trkpt>
      <trkpt lat="42.07903" lon="-1.41142">
        <ele>424</ele>
        <time>2010-11-05T22:29:03Z</time>
      </trkpt>
      <trkpt lat="42.07908" lon="-1.41095">
        <ele>426</ele>
        <time>2010-11-05T22:29:13Z</time>
      </trkpt>
      <trkpt lat="42.07926" lon="-1.41059">
        <ele>427</ele>
        <time>2010-11-05T22:29:23Z</time>
      </trkpt>
      <trkpt lat="42.07952" lon="-1.41045">
        <ele>426</ele>
        <time>2010-11-05T22:29:32Z</time>
      </trkpt>
      <trkpt lat="42.07984" lon="-1.41042">
        <ele>426</ele>
        <time>2010-11-05T22:29:42Z</time>
      </trkpt>
      <trkpt lat="42.08012" lon="-1.4102">
        <ele>427</ele>
        <time>2010-11-05T22:29:51Z</time>
      </trkpt>
      <trkpt lat="42.08049" lon="-1.40973">
        <ele>426</ele>
        <time>2010-11-05T22:30:07Z</time>
      </trkpt>
      <trkpt lat="42.08096" lon="-1.40915">
        <ele>425</ele>
        <time>2010-11-05T22:30:28Z</time>
      </trkpt>
      <trkpt lat="42.08158" lon="-1.40826">
        <ele>422</ele>
        <time>2010-11-05T22:30:55Z</time>
      </trkpt>
      <trkpt lat="42.08174" lon="-1.40767">
        <ele>423</ele>
        <time>2010-11-05T22:31:09Z</time>
      </trkpt>
      <trkpt lat="42.08174" lon="-1.40764">
        <ele>423</ele>
        <time>2010-11-05T22:31:09Z</time>
      </trkpt>
      <trkpt lat="42.08177" lon="-1.40727">
        <ele>423</ele>
        <time>2010-11-05T22:31:19Z</time>
      </trkpt>
      <trkpt lat="42.08192" lon="-1.40729">
        <ele>422</ele>
        <time>2010-11-05T22:31:24Z</time>
      </trkpt>
      <trkpt lat="42.08193" lon="-1.40729">
        <ele>422</ele>
        <time>2010-11-05T22:31:24Z</time>
      </trkpt>
      <trkpt lat="42.08222" lon="-1.40737">
        <ele>422</ele>
        <time>2010-11-05T22:31:33Z</time>
      </trkpt>
      <trkpt lat="42.08253" lon="-1.40752">
        <ele>422</ele>
        <time>2010-11-05T22:31:43Z</time>
      </trkpt>
      <trkpt lat="42.08297" lon="-1.4077">
        <ele>422</ele>
        <time>2010-11-05T22:31:57Z</time>
      </trkpt>
      <trkpt lat="42.08298" lon="-1.40771">
        <ele>422</ele>
        <time>2010-11-05T22:31:57Z</time>
      </trkpt>
      <trkpt lat="42.08336" lon="-1.40768">
        <ele>422</ele>
        <time>2010-11-05T22:32:10Z</time>
      </trkpt>
      <trkpt lat="42.08354" lon="-1.40757">
        <ele>424</ele>
        <time>2010-11-05T22:32:16Z</time>
      </trkpt>
      <trkpt lat="42.08368" lon="-1.40751">
        <ele>424</ele>
        <time>2010-11-05T22:32:19Z</time>
      </trkpt>
      <trkpt lat="42.08399" lon="-1.40749">
        <ele>422</ele>
        <time>2010-11-05T22:32:30Z</time>
      </trkpt>
      <trkpt lat="42.08401" lon="-1.40749">
        <ele>422</ele>
        <time>2010-11-05T22:32:30Z</time>
      </trkpt>
      <trkpt lat="42.08429" lon="-1.40745">
        <ele>420</ele>
        <time>2010-11-05T22:32:38Z</time>
      </trkpt>
      <trkpt lat="42.08432" lon="-1.40745">
        <ele>417</ele>
        <time>2010-11-05T22:32:40Z</time>
      </trkpt>
      <trkpt lat="42.08471" lon="-1.40734">
        <ele>414</ele>
        <time>2010-11-05T22:32:51Z</time>
      </trkpt>
      <trkpt lat="42.08494" lon="-1.4073">
        <ele>411</ele>
        <time>2010-11-05T22:32:59Z</time>
      </trkpt>
      <trkpt lat="42.08513" lon="-1.4071">
        <ele>411</ele>
        <time>2010-11-05T22:33:07Z</time>
      </trkpt>
      <trkpt lat="42.08536" lon="-1.40684">
        <ele>409</ele>
        <time>2010-11-05T22:33:15Z</time>
      </trkpt>
      <trkpt lat="42.08548" lon="-1.40646">
        <ele>406</ele>
        <time>2010-11-05T22:33:26Z</time>
      </trkpt>
      <trkpt lat="42.08571" lon="-1.40607">
        <ele>403</ele>
        <time>2010-11-05T22:33:37Z</time>
      </trkpt>
      <trkpt lat="42.08622" lon="-1.40548">
        <ele>400</ele>
        <time>2010-11-05T22:33:58Z</time>
      </trkpt>
      <trkpt lat="42.08653" lon="-1.40525">
        <ele>400</ele>
        <time>2010-11-05T22:34:09Z</time>
      </trkpt>
      <trkpt lat="42.08687" lon="-1.40496">
        <ele>402</ele>
        <time>2010-11-05T22:34:20Z</time>
      </trkpt>
      <trkpt lat="42.08725" lon="-1.40464">
        <ele>406</ele>
        <time>2010-11-05T22:34:35Z</time>
      </trkpt>
      <trkpt lat="42.08755" lon="-1.40436">
        <ele>409</ele>
        <time>2010-11-05T22:34:46Z</time>
      </trkpt>
      <trkpt lat="42.08772" lon="-1.40418">
        <ele>408</ele>
        <time>2010-11-05T22:34:52Z</time>
      </trkpt>
      <trkpt lat="42.08799" lon="-1.40399">
        <ele>408</ele>
        <time>2010-11-05T22:35:02Z</time>
      </trkpt>
      <trkpt lat="42.08799" lon="-1.40399">
        <ele>408</ele>
        <time>2010-11-05T22:35:02Z</time>
      </trkpt>
      <trkpt lat="42.0882" lon="-1.40383">
        <ele>408</ele>
        <time>2010-11-05T22:35:10Z</time>
      </trkpt>
      <trkpt lat="42.08841" lon="-1.40364">
        <ele>408</ele>
        <time>2010-11-05T22:35:18Z</time>
      </trkpt>
      <trkpt lat="42.08868" lon="-1.40329">
        <ele>406</ele>
        <time>2010-11-05T22:35:29Z</time>
      </trkpt>
      <trkpt lat="42.08904" lon="-1.4031">
        <ele>406</ele>
        <time>2010-11-05T22:35:41Z</time>
      </trkpt>
      <trkpt lat="42.08929" lon="-1.40286">
        <ele>411</ele>
        <time>2010-11-05T22:35:51Z</time>
      </trkpt>
      <trkpt lat="42.08931" lon="-1.40286">
        <ele>411</ele>
        <time>2010-11-05T22:35:51Z</time>
      </trkpt>
      <trkpt lat="42.08963" lon="-1.40246">
        <ele>413</ele>
        <time>2010-11-05T22:36:04Z</time>
      </trkpt>
      <trkpt lat="42.09003" lon="-1.40208">
        <ele>414</ele>
        <time>2010-11-05T22:36:20Z</time>
      </trkpt>
      <trkpt lat="42.09038" lon="-1.40158">
        <ele>413</ele>
        <time>2010-11-05T22:36:34Z</time>
      </trkpt>
      <trkpt lat="42.09076" lon="-1.40134">
        <ele>411</ele>
        <time>2010-11-05T22:36:48Z</time>
      </trkpt>
      <trkpt lat="42.09119" lon="-1.40092">
        <ele>410</ele>
        <time>2010-11-05T22:37:04Z</time>
      </trkpt>
      <trkpt lat="42.09192" lon="-1.40028">
        <ele>410</ele>
        <time>2010-11-05T22:37:30Z</time>
      </trkpt>
      <trkpt lat="42.09192" lon="-1.40028">
        <ele>410</ele>
        <time>2010-11-05T22:37:31Z</time>
      </trkpt>
      <trkpt lat="42.09251" lon="-1.3997">
        <ele>412</ele>
        <time>2010-11-05T22:37:54Z</time>
      </trkpt>
      <trkpt lat="42.09374" lon="-1.39858">
        <ele>411</ele>
        <time>2010-11-05T22:38:40Z</time>
      </trkpt>
      <trkpt lat="42.09456" lon="-1.39769">
        <ele>413</ele>
        <time>2010-11-05T22:39:12Z</time>
      </trkpt>
      <trkpt lat="42.09523" lon="-1.39702">
        <ele>407</ele>
        <time>2010-11-05T22:39:37Z</time>
      </trkpt>
      <trkpt lat="42.09563" lon="-1.39666">
        <ele>408</ele>
        <time>2010-11-05T22:39:53Z</time>
      </trkpt>
      <trkpt lat="42.09605" lon="-1.39643">
        <ele>410</ele>
        <time>2010-11-05T22:40:06Z</time>
      </trkpt>
      <trkpt lat="42.09643" lon="-1.39635">
        <ele>411</ele>
        <time>2010-11-05T22:40:19Z</time>
      </trkpt>
      <trkpt lat="42.09705" lon="-1.39628">
        <ele>413</ele>
        <time>2010-11-05T22:40:38Z</time>
      </trkpt>
      <trkpt lat="42.09836" lon="-1.39598">
        <ele>413</ele>
        <time>2010-11-05T22:41:19Z</time>
      </trkpt>
      <trkpt lat="42.09913" lon="-1.39585">
        <ele>413</ele>
        <time>2010-11-05T22:41:43Z</time>
      </trkpt>
      <trkpt lat="42.09945" lon="-1.39604">
        <ele>412</ele>
        <time>2010-11-05T22:41:52Z</time>
      </trkpt>
      <trkpt lat="42.09998" lon="-1.39628">
        <ele>409</ele>
        <time>2010-11-05T22:42:10Z</time>
      </trkpt>
      <trkpt lat="42.10033" lon="-1.39635">
        <ele>407</ele>
        <time>2010-11-05T22:42:21Z</time>
      </trkpt>
      <trkpt lat="42.10086" lon="-1.39629">
        <ele>403</ele>
        <time>2010-11-05T22:42:37Z</time>
      </trkpt>
      <trkpt lat="42.10138" lon="-1.39595">
        <ele>408</ele>
        <time>2010-11-05T22:42:55Z</time>
      </trkpt>
      <trkpt lat="42.10184" lon="-1.3954">
        <ele>409</ele>
        <time>2010-11-05T22:43:14Z</time>
      </trkpt>
      <trkpt lat="42.10218" lon="-1.39493">
        <ele>409</ele>
        <time>2010-11-05T22:43:30Z</time>
      </trkpt>
      <trkpt lat="42.1022" lon="-1.39493">
        <ele>409</ele>
        <time>2010-11-05T22:43:30Z</time>
      </trkpt>
      <trkpt lat="42.10328" lon="-1.39363">
        <ele>411</ele>
        <time>2010-11-05T22:44:14Z</time>
      </trkpt>
      <trkpt lat="42.10369" lon="-1.39306">
        <ele>416</ele>
        <time>2010-11-05T22:44:33Z</time>
      </trkpt>
      <trkpt lat="42.10402" lon="-1.39285">
        <ele>416</ele>
        <time>2010-11-05T22:44:43Z</time>
      </trkpt>
      <trkpt lat="42.10433" lon="-1.39268">
        <ele>416</ele>
        <time>2010-11-05T22:44:54Z</time>
      </trkpt>
      <trkpt lat="42.10434" lon="-1.39268">
        <ele>416</ele>
        <time>2010-11-05T22:44:55Z</time>
      </trkpt>
      <trkpt lat="42.10474" lon="-1.39223">
        <ele>414</ele>
        <time>2010-11-05T22:45:11Z</time>
      </trkpt>
      <trkpt lat="42.10513" lon="-1.39176">
        <ele>415</ele>
        <time>2010-11-05T22:45:27Z</time>
      </trkpt>
      <trkpt lat="42.10539" lon="-1.39146">
        <ele>417</ele>
        <time>2010-11-05T22:45:37Z</time>
      </trkpt>
      <trkpt lat="42.10569" lon="-1.39093">
        <ele>418</ele>
        <time>2010-11-05T22:45:53Z</time>
      </trkpt>
      <trkpt lat="42.10592" lon="-1.39046">
        <ele>420</ele>
        <time>2010-11-05T22:46:06Z</time>
      </trkpt>
      <trkpt lat="42.10598" lon="-1.38987">
        <ele>421</ele>
        <time>2010-11-05T22:46:18Z</time>
      </trkpt>
      <trkpt lat="42.10606" lon="-1.38959">
        <ele>420</ele>
        <time>2010-11-05T22:46:25Z</time>
      </trkpt>
      <trkpt lat="42.10645" lon="-1.38897">
        <ele>418</ele>
        <time>2010-11-05T22:46:44Z</time>
      </trkpt>
      <trkpt lat="42.10683" lon="-1.3887">
        <ele>414</ele>
        <time>2010-11-05T22:46:58Z</time>
      </trkpt>
      <trkpt lat="42.10725" lon="-1.38843">
        <ele>417</ele>
        <time>2010-11-05T22:47:12Z</time>
      </trkpt>
      <trkpt lat="42.10767" lon="-1.38898">
        <ele>410</ele>
        <time>2010-11-05T22:47:30Z</time>
      </trkpt>
      <trkpt lat="42.10878" lon="-1.39068">
        <ele>410</ele>
        <time>2010-11-05T22:48:22Z</time>
      </trkpt>
      <trkpt lat="42.10914" lon="-1.39119">
        <ele>408</ele>
        <time>2010-11-05T22:48:38Z</time>
      </trkpt>
      <trkpt lat="42.10986" lon="-1.39229">
        <ele>409</ele>
        <time>2010-11-05T22:49:12Z</time>
      </trkpt>
      <trkpt lat="42.1105" lon="-1.39304">
        <ele>410</ele>
        <time>2010-11-05T22:49:37Z</time>
        <extensions>
          <visugpx:TrkExtension xmlns:visugpx="https://www.visugpx.com/editgpx/">
            <visugpx:node>1</visugpx:node>
            </visugpx:TrkExtension>
        </extensions>
      </trkpt>
    </trkseg>
  </trk>
</gpx>